TimeEST,TemperatureF,Dew PointF,Humidity,Sea Level PressureIn,VisibilityMPH,Wind Direction,Wind SpeedMPH,Gust SpeedMPH,PrecipitationIn,Events,Conditions,WindDirDegrees,DateUTC
12:53 AM,30.0,27.0,88,30.42,10.0,Calm,Calm,-,N/A,,Partly Cloudy,0,2012-11-14 05:53:00
1:53 AM,28.0,25.0,88,30.45,10.0,Calm,Calm,-,N/A,,Clear,0,2012-11-14 06:53:00
2:53 AM,27.0,25.0,92,30.45,10.0,Calm,Calm,-,N/A,,Clear,0,2012-11-14 07:53:00
3:53 AM,28.0,25.0,88,30.46,10.0,NE,3.5,-,N/A,,Clear,50,2012-11-14 08:53:00
4:53 AM,27.0,24.1,89,30.48,10.0,ENE,3.5,-,N/A,,Clear,60,2012-11-14 09:53:00
5:53 AM,25.0,21.9,88,30.51,10.0,Calm,Calm,-,N/A,,Clear,0,2012-11-14 10:53:00
6:53 AM,25.0,21.0,85,30.54,10.0,Calm,Calm,-,N/A,,Clear,0,2012-11-14 11:53:00
7:53 AM,28.0,26.1,92,30.55,10.0,Calm,Calm,-,N/A,,Clear,0,2012-11-14 12:53:00
8:53 AM,33.1,26.1,75,30.55,10.0,North,6.9,-,N/A,,Clear,350,2012-11-14 13:53:00
9:53 AM,35.1,27.0,72,30.56,10.0,North,12.7,-,N/A,,Clear,360,2012-11-14 14:53:00
10:53 AM,36.0,27.0,70,30.54,10.0,North,12.7,-,N/A,,Partly Cloudy,360,2012-11-14 15:53:00
11:53 AM,37.9,27.0,65,30.53,10.0,North,10.4,-,N/A,,Partly Cloudy,350,2012-11-14 16:53:00
12:53 PM,39.0,26.1,60,30.53,10.0,North,13.8,-,N/A,,Clear,360,2012-11-14 17:53:00
1:53 PM,39.0,26.1,60,30.53,10.0,North,12.7,19.6,N/A,,Clear,360,2012-11-14 18:53:00
2:53 PM,37.0,24.1,59,30.55,10.0,North,8.1,-,N/A,,Clear,350,2012-11-14 19:53:00
3:53 PM,34.0,25.0,70,30.54,10.0,North,9.2,-,N/A,,Partly Cloudy,360,2012-11-14 20:53:00
4:53 PM,28.9,23.0,78,30.56,10.0,North,4.6,-,N/A,,Clear,10,2012-11-14 21:53:00
5:53 PM,30.0,24.1,79,30.56,10.0,NNE,4.6,-,N/A,,Clear,20,2012-11-14 22:53:00
6:53 PM,28.9,24.1,82,30.56,10.0,NE,4.6,-,N/A,,Clear,40,2012-11-14 23:53:00
7:53 PM,28.0,23.0,81,30.57,10.0,NNE,4.6,-,N/A,,Scattered Clouds,30,2012-11-15 00:53:00
8:53 PM,26.1,21.9,84,30.57,10.0,NNE,4.6,-,N/A,,Clear,20,2012-11-15 01:53:00
9:53 PM,25.0,21.0,85,30.57,10.0,North,3.5,-,N/A,,Clear,350,2012-11-15 02:53:00
10:53 PM,24.1,21.0,88,30.56,10.0,Calm,Calm,-,N/A,,Clear,0,2012-11-15 03:53:00
11:53 PM,25.0,21.0,85,30.55,10.0,Calm,Calm,-,N/A,,Clear,0,2012-11-15 04:53:00